Time;durP1;ratioP1;P1;durP2;ratioP2;P2;SDS_P1;SDS_P2;PMS_P1;PMS_P2;Temp;Humidity;BMP_temperature;BMP_pressure;BME280_temperature;BME280_humidity;BME280_pressure;Samples;Min_cycle;Max_cycle;Signal;HPM_P1;HPM_P2
2022/03/06 00:01:35;;;;;;;4.68;3.33;;;;;;;;;;5108292;27;20071;-56
2022/03/06 00:04:01;;;;;;;3.72;3.42;;;;;;;;;;5108240;28;20392;-56
2022/03/06 00:06:26;;;;;;;4.00;3.63;;;;;;;;;;5113586;28;20032;-56
2022/03/06 00:08:51;;;;;;;3.28;2.83;;;;;;;;;;5112274;28;20368;-56
2022/03/06 00:11:16;;;;;;;4.30;3.20;;;;;;;;;;5105667;27;20098;-55
2022/03/06 00:13:42;;;;;;;3.40;3.10;;;;;;;;;;5111476;27;20080;-55
2022/03/06 00:16:07;;;;;;;4.45;4.05;;;;;;;;;;5097515;28;20023;-57
2022/03/06 00:18:35;;;;;;;4.50;4.10;;;;;;;;;;5108430;28;20023;-56
2022/03/06 00:21:00;;;;;;;3.78;3.05;;;;;;;;;;5105091;28;20479;-55
2022/03/06 00:23:26;;;;;;;5.90;3.33;;;;;;;;;;5103204;27;20198;-57
2022/03/06 00:25:51;;;;;;;4.75;3.28;;;;;;;;;;5104446;27;20031;-55
2022/03/06 00:28:16;;;;;;;3.63;2.67;;;;;;;;;;5109942;27;20043;-56
2022/03/06 00:30:42;;;;;;;4.88;4.18;;;;;;;;;;5110493;27;20027;-57
2022/03/06 00:33:07;;;;;;;4.30;3.20;;;;;;;;;;5106490;27;20039;-55
2022/03/06 00:35:32;;;;;;;4.20;3.80;;;;;;;;;;5109967;27;20059;-55
2022/03/06 00:37:58;;;;;;;4.22;3.83;;;;;;;;;;5102562;27;20150;-56
2022/03/06 00:40:23;;;;;;;5.03;3.25;;;;;;;;;;5110244;28;20395;-57
2022/03/06 00:42:49;;;;;;;5.80;4.75;;;;;;;;;;5103621;27;20023;-57
2022/03/06 00:45:14;;;;;;;3.65;3.35;;;;;;;;;;5109230;28;20024;-57
2022/03/06 00:47:39;;;;;;;5.05;3.65;;;;;;;;;;5105896;28;20123;-57
2022/03/06 00:50:04;;;;;;;4.13;3.45;;;;;;;;;;5108389;27;20110;-57
2022/03/06 00:52:30;;;;;;;3.95;3.55;;;;;;;;;;5108930;28;20543;-55
2022/03/06 00:54:55;;;;;;;4.22;3.72;;;;;;;;;;5106340;27;20070;-57
2022/03/06 00:57:20;;;;;;;4.97;3.75;;;;;;;;;;5108298;27;20118;-57
2022/03/06 00:59:45;;;;;;;4.00;3.60;;;;;;;;;;5108056;27;20721;-56
2022/03/06 01:02:10;;;;;;;4.43;4.00;;;;;;;;;;5100576;28;20028;-58
2022/03/06 01:04:37;;;;;;;4.22;3.78;;;;;;;;;;5106590;28;20426;-55
2022/03/06 01:07:03;;;;;;;3.95;3.55;;;;;;;;;;5097369;28;20035;-57
2022/03/06 01:09:28;;;;;;;5.22;3.47;;;;;;;;;;5106032;28;20098;-56
2022/03/06 01:11:53;;;;;;;3.83;3.42;;;;;;;;;;5110146;27;20031;-57
2022/03/06 01:14:19;;;;;;;4.30;3.67;;;;;;;;;;5105025;28;20027;-57
2022/03/06 01:16:44;;;;;;;4.22;3.83;;;;;;;;;;5103672;28;20020;-55
2022/03/06 01:19:09;;;;;;;4.38;3.92;;;;;;;;;;5097100;28;20433;-55
2022/03/06 01:21:34;;;;;;;3.55;3.25;;;;;;;;;;5103173;28;20475;-56
2022/03/06 01:23:59;;;;;;;3.75;3.45;;;;;;;;;;5106967;28;20480;-57
2022/03/06 01:26:25;;;;;;;4.38;3.60;;;;;;;;;;5102359;28;20476;-57
2022/03/06 01:28:50;;;;;;;3.63;3.33;;;;;;;;;;5109519;27;20503;-56
2022/03/06 01:31:15;;;;;;;4.13;3.72;;;;;;;;;;5100865;28;20043;-57
2022/03/06 01:33:40;;;;;;;3.22;2.92;;;;;;;;;;5101298;27;20027;-57
2022/03/06 01:36:05;;;;;;;3.40;3.10;;;;;;;;;;5097784;28;20028;-57
2022/03/06 01:38:31;;;;;;;3.45;2.72;;;;;;;;;;5095483;28;20036;-53
2022/03/06 01:40:56;;;;;;;3.83;3.42;;;;;;;;;;5108011;27;20028;-57
2022/03/06 01:43:21;;;;;;;3.15;2.88;;;;;;;;;;5116517;27;20111;-57
2022/03/06 01:45:47;;;;;;;5.30;3.88;;;;;;;;;;5107893;28;20367;-57
2022/03/06 01:48:12;;;;;;;4.00;2.92;;;;;;;;;;5109168;28;20399;-54
2022/03/06 01:50:38;;;;;;;3.45;3.15;;;;;;;;;;5107290;28;20123;-55
2022/03/06 01:53:07;;;;;;;2.42;2.22;;;;;;;;;;5106822;28;20369;-56
2022/03/06 01:55:32;;;;;;;2.90;2.58;;;;;;;;;;5105747;28;20073;-56
2022/03/06 01:57:59;;;;;;;3.05;2.75;;;;;;;;;;5102624;28;20071;-56
2022/03/06 02:00:26;;;;;;;3.60;2.92;;;;;;;;;;5102760;28;20106;-55
2022/03/06 02:02:52;;;;;;;2.42;2.22;;;;;;;;;;5102677;28;20015;-57
2022/03/06 02:05:17;;;;;;;3.35;3.05;;;;;;;;;;5109510;28;20556;-57
2022/03/06 02:07:42;;;;;;;3.17;2.88;;;;;;;;;;5108150;27;20096;-55
2022/03/06 02:10:08;;;;;;;2.97;2.70;;;;;;;;;;5113095;28;20461;-56
2022/03/06 02:12:34;;;;;;;3.40;3.10;;;;;;;;;;5110587;27;20077;-55
2022/03/06 02:15:00;;;;;;;2.92;2.63;;;;;;;;;;5109941;28;20023;-57
2022/03/06 02:17:25;;;;;;;3.03;2.72;;;;;;;;;;5101937;28;20097;-55
2022/03/06 02:19:53;;;;;;;2.47;2.10;;;;;;;;;;5109972;28;20468;-57
2022/03/06 02:22:19;;;;;;;2.45;2.25;;;;;;;;;;5103352;28;20060;-57
2022/03/06 02:24:45;;;;;;;2.85;2.65;;;;;;;;;;5103133;28;20108;-56
2022/03/06 02:27:10;;;;;;;3.72;2.72;;;;;;;;;;5099674;28;20105;-56
2022/03/06 02:29:39;;;;;;;3.75;3.40;;;;;;;;;;5103858;27;20466;-56
2022/03/06 02:32:04;;;;;;;2.53;2.33;;;;;;;;;;5108600;28;20034;-57
2022/03/06 02:34:29;;;;;;;2.58;2.15;;;;;;;;;;5110616;27;20026;-57
2022/03/06 02:36:54;;;;;;;2.75;2.53;;;;;;;;;;5101638;28;20055;-57
2022/03/06 02:39:26;;;;;;;2.60;2.30;;;;;;;;;;5106583;27;20016;-57
2022/03/06 02:41:51;;;;;;;2.05;1.85;;;;;;;;;;5096107;28;20472;-57
2022/03/06 02:44:16;;;;;;;2.47;2.28;;;;;;;;;;5100660;28;20028;-57
2022/03/06 02:46:44;;;;;;;2.67;2.47;;;;;;;;;;5110246;28;20032;-56
2022/03/06 02:49:10;;;;;;;3.50;3.10;;;;;;;;;;5110056;27;20078;-57
2022/03/06 02:51:36;;;;;;;2.95;2.65;;;;;;;;;;5110602;28;20495;-57
2022/03/06 02:54:01;;;;;;;3.33;3.03;;;;;;;;;;5096317;28;20022;-56
2022/03/06 02:56:28;;;;;;;3.63;2.95;;;;;;;;;;5106032;27;20056;-56
2022/03/06 02:58:53;;;;;;;3.40;3.10;;;;;;;;;;5107331;27;20827;-56
2022/03/06 03:01:18;;;;;;;3.25;2.80;;;;;;;;;;5106225;27;20082;-57
2022/03/06 03:03:44;;;;;;;3.58;3.28;;;;;;;;;;5108742;28;20425;-56
2022/03/06 03:06:09;;;;;;;2.30;2.10;;;;;;;;;;5106818;28;20016;-56
2022/03/06 03:08:34;;;;;;;3.42;3.03;;;;;;;;;;5111986;27;20032;-57
2022/03/06 03:11:00;;;;;;;2.90;2.35;;;;;;;;;;5110802;28;20028;-56
2022/03/06 03:13:25;;;;;;;2.47;2.28;;;;;;;;;;5109950;27;20475;-57
2022/03/06 03:15:50;;;;;;;3.00;2.80;;;;;;;;;;5095948;27;20028;-54
2022/03/06 03:18:15;;;;;;;3.10;2.80;;;;;;;;;;5114490;28;20027;-51
2022/03/06 03:20:40;;;;;;;3.55;3.10;;;;;;;;;;5115134;27;20023;-57
2022/03/06 03:23:05;;;;;;;2.50;2.22;;;;;;;;;;5094031;28;20059;-55
2022/03/06 03:25:31;;;;;;;4.53;2.83;;;;;;;;;;5107215;28;20027;-57
2022/03/06 03:27:56;;;;;;;2.92;2.58;;;;;;;;;;5102286;28;20036;-57
2022/03/06 03:30:21;;;;;;;3.67;3.38;;;;;;;;;;5112496;28;20441;-57
2022/03/06 03:32:47;;;;;;;2.13;1.75;;;;;;;;;;5113668;28;20019;-57
2022/03/06 03:35:12;;;;;;;3.05;2.17;;;;;;;;;;5112007;27;20440;-56
2022/03/06 03:37:37;;;;;;;3.35;3.05;;;;;;;;;;5113223;28;20052;-56
2022/03/06 03:40:03;;;;;;;3.72;2.53;;;;;;;;;;5107777;28;20062;-56
2022/03/06 03:42:29;;;;;;;2.80;2.42;;;;;;;;;;5108670;27;20024;-56
2022/03/06 03:44:54;;;;;;;2.20;2.08;;;;;;;;;;5103948;27;20027;-57
2022/03/06 03:47:19;;;;;;;2.63;2.42;;;;;;;;;;5112058;28;20028;-57
2022/03/06 03:49:44;;;;;;;2.63;2.42;;;;;;;;;;5103026;27;20173;-54
2022/03/06 03:52:10;;;;;;;2.75;2.55;;;;;;;;;;5100464;28;20538;-55
2022/03/06 03:54:35;;;;;;;2.65;2.42;;;;;;;;;;5108245;28;20028;-55
2022/03/06 03:57:01;;;;;;;3.03;2.75;;;;;;;;;;5100802;28;20055;-57
2022/03/06 03:59:26;;;;;;;2.72;2.53;;;;;;;;;;5112506;27;20026;-56
2022/03/06 04:01:52;;;;;;;4.53;3.50;;;;;;;;;;5101400;28;20476;-56
2022/03/06 04:04:17;;;;;;;3.42;2.85;;;;;;;;;;5102926;28;20024;-57
2022/03/06 04:06:42;;;;;;;3.00;2.70;;;;;;;;;;5100879;28;20024;-55
2022/03/06 04:09:07;;;;;;;3.13;2.30;;;;;;;;;;5109107;27;20369;-56
2022/03/06 04:11:33;;;;;;;2.53;2.33;;;;;;;;;;5109455;28;20011;-57
2022/03/06 04:13:58;;;;;;;2.63;2.40;;;;;;;;;;5109037;27;20485;-57
2022/03/06 04:16:23;;;;;;;3.25;2.42;;;;;;;;;;5109729;28;20100;-54
2022/03/06 04:18:48;;;;;;;4.15;2.88;;;;;;;;;;5106516;28;20504;-56
2022/03/06 04:21:13;;;;;;;3.22;2.92;;;;;;;;;;5110010;28;20571;-57
2022/03/06 04:23:38;;;;;;;2.95;2.30;;;;;;;;;;5104485;27;20043;-58
2022/03/06 04:26:04;;;;;;;2.53;2.33;;;;;;;;;;5111651;28;20081;-57
2022/03/06 04:28:30;;;;;;;2.75;2.55;;;;;;;;;;5109582;27;20503;-57
2022/03/06 04:30:55;;;;;;;2.55;2.33;;;;;;;;;;5107868;28;20028;-57
2022/03/06 04:33:21;;;;;;;4.28;2.97;;;;;;;;;;5108997;28;20035;-56
2022/03/06 04:35:46;;;;;;;4.00;3.60;;;;;;;;;;5106993;27;20023;-58
2022/03/06 04:38:11;;;;;;;2.25;2.05;;;;;;;;;;5102416;27;20541;-55
2022/03/06 04:40:36;;;;;;;2.55;2.35;;;;;;;;;;5107445;28;20024;-57
2022/03/06 04:43:02;;;;;;;2.97;2.78;;;;;;;;;;5110153;28;20122;-57
2022/03/06 04:45:27;;;;;;;2.90;2.25;;;;;;;;;;5111519;28;20003;-57
2022/03/06 04:47:53;;;;;;;3.00;2.40;;;;;;;;;;5105245;27;20400;-57
2022/03/06 04:50:18;;;;;;;2.30;2.08;;;;;;;;;;5105487;27;20391;-54
2022/03/06 04:52:43;;;;;;;2.53;2.33;;;;;;;;;;5107579;28;20023;-58
2022/03/06 04:55:08;;;;;;;2.40;2.20;;;;;;;;;;5105168;28;20047;-57
2022/03/06 04:57:34;;;;;;;2.83;2.10;;;;;;;;;;5108373;28;20236;-57
2022/03/06 04:59:59;;;;;;;2.97;2.67;;;;;;;;;;5108606;27;20539;-57
2022/03/06 05:02:24;;;;;;;2.53;2.33;;;;;;;;;;5110747;27;20437;-57
2022/03/06 05:04:50;;;;;;;3.00;2.70;;;;;;;;;;5105774;28;20119;-56
2022/03/06 05:07:16;;;;;;;2.63;2.42;;;;;;;;;;5095410;27;20068;-57
2022/03/06 05:09:41;;;;;;;1.73;1.63;;;;;;;;;;5105515;27;20055;-55
2022/03/06 05:12:06;;;;;;;2.97;2.38;;;;;;;;;;5103842;28;20032;-55
2022/03/06 05:14:32;;;;;;;2.53;2.30;;;;;;;;;;5102413;28;20152;-57
2022/03/06 05:16:57;;;;;;;2.63;2.42;;;;;;;;;;5107264;28;20028;-57
2022/03/06 05:19:22;;;;;;;2.67;2.47;;;;;;;;;;5104645;27;20019;-58
2022/03/06 05:21:47;;;;;;;2.65;2.45;;;;;;;;;;5102199;28;20016;-57
2022/03/06 05:24:13;;;;;;;2.50;2.30;;;;;;;;;;5107229;28;20497;-57
2022/03/06 05:26:38;;;;;;;3.17;2.30;;;;;;;;;;5106628;28;20379;-57
2022/03/06 05:29:03;;;;;;;3.42;2.28;;;;;;;;;;5107723;28;20101;-56
2022/03/06 05:31:29;;;;;;;3.08;2.80;;;;;;;;;;5102197;28;20460;-57
2022/03/06 05:33:54;;;;;;;3.47;2.88;;;;;;;;;;5104410;28;20027;-57
2022/03/06 05:36:19;;;;;;;1.77;1.67;;;;;;;;;;5098392;28;20452;-56
2022/03/06 05:38:44;;;;;;;2.97;2.63;;;;;;;;;;5102337;27;20059;-56
2022/03/06 05:41:10;;;;;;;2.13;1.92;;;;;;;;;;5107087;28;20022;-57
2022/03/06 05:43:35;;;;;;;2.80;2.05;;;;;;;;;;5111483;27;20023;-56
2022/03/06 05:46:02;;;;;;;3.58;2.45;;;;;;;;;;5110200;28;20046;-56
2022/03/06 05:48:27;;;;;;;2.05;1.60;;;;;;;;;;5103252;28;20112;-56
2022/03/06 05:50:52;;;;;;;1.52;1.42;;;;;;;;;;5106302;27;20024;-55
2022/03/06 05:53:17;;;;;;;3.20;2.00;;;;;;;;;;5104713;28;20027;-56
2022/03/06 05:55:43;;;;;;;2.42;1.95;;;;;;;;;;5101737;27;20071;-56
2022/03/06 05:58:08;;;;;;;3.30;2.05;;;;;;;;;;5101823;28;20035;-56
2022/03/06 06:00:33;;;;;;;3.00;2.70;;;;;;;;;;5103407;27;20023;-56
2022/03/06 06:02:58;;;;;;;2.05;1.63;;;;;;;;;;5108666;28;20143;-56
2022/03/06 06:05:24;;;;;;;2.15;1.95;;;;;;;;;;5111741;28;20379;-56
2022/03/06 06:07:50;;;;;;;2.00;1.80;;;;;;;;;;5104715;28;20235;-56
2022/03/06 06:10:15;;;;;;;1.85;1.73;;;;;;;;;;5108580;28;20484;-55
2022/03/06 06:12:41;;;;;;;1.50;1.30;;;;;;;;;;5100624;28;20035;-57
2022/03/06 06:15:06;;;;;;;2.53;2.33;;;;;;;;;;5102489;28;20023;-56
2022/03/06 06:17:32;;;;;;;1.85;1.75;;;;;;;;;;5110815;28;20476;-56
2022/03/06 06:19:58;;;;;;;2.15;1.98;;;;;;;;;;5103685;28;20077;-57
2022/03/06 06:22:23;;;;;;;2.30;1.85;;;;;;;;;;5105165;28;20518;-57
2022/03/06 06:24:48;;;;;;;2.00;1.80;;;;;;;;;;5108026;28;20055;-55
2022/03/06 06:27:13;;;;;;;2.13;1.88;;;;;;;;;;5102045;28;20032;-55
2022/03/06 06:29:38;;;;;;;2.50;2.08;;;;;;;;;;5108937;28;20100;-55
2022/03/06 06:32:04;;;;;;;2.55;1.95;;;;;;;;;;5105946;28;20039;-58
2022/03/06 06:34:29;;;;;;;2.33;1.98;;;;;;;;;;5110627;28;20043;-55
2022/03/06 06:36:57;;;;;;;2.20;2.00;;;;;;;;;;5104595;28;20027;-56
2022/03/06 06:39:23;;;;;;;1.58;0.63;;;;;;;;;;5107893;28;20520;-55
2022/03/06 06:41:48;;;;;;;2.15;1.42;;;;;;;;;;5111177;28;20023;-54
2022/03/06 06:44:13;;;;;;;2.70;1.90;;;;;;;;;;5109811;28;20480;-56
2022/03/06 06:46:38;;;;;;;2.08;1.60;;;;;;;;;;5110416;28;20012;-56
2022/03/06 06:49:04;;;;;;;2.58;2.38;;;;;;;;;;5111367;28;20015;-56
2022/03/06 06:51:29;;;;;;;2.50;1.92;;;;;;;;;;5112050;28;20023;-55
2022/03/06 06:53:55;;;;;;;2.15;1.88;;;;;;;;;;5103448;28;20020;-57
2022/03/06 06:56:20;;;;;;;2.25;1.98;;;;;;;;;;5108243;28;20035;-57
2022/03/06 06:58:45;;;;;;;2.63;2.22;;;;;;;;;;5103887;28;20031;-58
2022/03/06 07:01:10;;;;;;;2.35;1.88;;;;;;;;;;5108597;28;20020;-56
2022/03/06 07:03:36;;;;;;;3.15;2.47;;;;;;;;;;5098707;28;20046;-57
2022/03/06 07:06:01;;;;;;;2.00;1.90;;;;;;;;;;5102699;28;20032;-57
2022/03/06 07:08:26;;;;;;;2.85;2.05;;;;;;;;;;5104588;28;20020;-56
2022/03/06 07:10:51;;;;;;;1.75;1.65;;;;;;;;;;5106908;28;20028;-55
2022/03/06 07:13:17;;;;;;;2.38;1.83;;;;;;;;;;5102911;28;20019;-57
2022/03/06 07:15:42;;;;;;;3.13;2.05;;;;;;;;;;5106150;27;20028;-55
2022/03/06 07:18:07;;;;;;;2.10;1.40;;;;;;;;;;5111201;27;20027;-56
2022/03/06 07:20:33;;;;;;;3.53;2.03;;;;;;;;;;5108993;27;20102;-56
2022/03/06 07:22:58;;;;;;;1.67;1.50;;;;;;;;;;5112945;27;20012;-56
2022/03/06 07:25:23;;;;;;;1.70;1.60;;;;;;;;;;5108843;28;20526;-57
2022/03/06 07:27:48;;;;;;;2.88;1.50;;;;;;;;;;5114114;27;20024;-56
2022/03/06 07:30:14;;;;;;;3.28;1.88;;;;;;;;;;5113730;27;20023;-55
2022/03/06 07:32:50;;;;;;;1.58;1.23;;;;;;;;;;5113363;28;20495;-56
2022/03/06 07:35:16;;;;;;;2.20;1.10;;;;;;;;;;5114533;28;20059;-56
2022/03/06 07:37:42;;;;;;;1.65;1.42;;;;;;;;;;5110235;27;20051;-56
2022/03/06 07:40:09;;;;;;;1.80;1.65;;;;;;;;;;5106112;27;20028;-55
2022/03/06 07:42:34;;;;;;;2.53;1.48;;;;;;;;;;5114875;28;20042;-56
2022/03/06 07:44:59;;;;;;;3.42;1.48;;;;;;;;;;5112119;28;20016;-56
2022/03/06 07:47:24;;;;;;;1.67;1.58;;;;;;;;;;5110631;28;20502;-56
2022/03/06 07:49:50;;;;;;;2.75;1.10;;;;;;;;;;5107201;27;20115;-55
2022/03/06 07:52:15;;;;;;;2.03;0.98;;;;;;;;;;5113404;28;20108;-57
2022/03/06 07:54:40;;;;;;;2.25;1.55;;;;;;;;;;5107406;28;20024;-55
2022/03/06 07:57:05;;;;;;;2.38;1.05;;;;;;;;;;5103320;27;20494;-56
2022/03/06 07:59:30;;;;;;;1.77;1.00;;;;;;;;;;5102711;28;20027;-55
2022/03/06 08:01:56;;;;;;;2.55;1.25;;;;;;;;;;5109899;27;20102;-55
2022/03/06 08:04:21;;;;;;;1.55;0.80;;;;;;;;;;5099091;27;21044;-55
2022/03/06 08:06:47;;;;;;;2.55;0.85;;;;;;;;;;5106092;28;20016;-56
2022/03/06 08:09:12;;;;;;;2.40;1.15;;;;;;;;;;5107026;27;20046;-53
2022/03/06 08:11:37;;;;;;;5.10;1.13;;;;;;;;;;5110076;27;20012;-56
2022/03/06 08:14:02;;;;;;;3.92;1.73;;;;;;;;;;5104665;28;20352;-56
2022/03/06 08:16:28;;;;;;;1.30;0.80;;;;;;;;;;5101174;27;20038;-54
2022/03/06 08:18:53;;;;;;;1.25;0.80;;;;;;;;;;5107496;27;20020;-56
2022/03/06 08:21:18;;;;;;;1.83;1.15;;;;;;;;;;5107328;27;20020;-55
2022/03/06 08:23:44;;;;;;;2.42;1.05;;;;;;;;;;5103004;27;20735;-55
2022/03/06 08:26:09;;;;;;;1.30;1.00;;;;;;;;;;5106401;27;20407;-54
2022/03/06 08:28:34;;;;;;;0.93;0.63;;;;;;;;;;5108610;27;20053;-57
2022/03/06 08:30:59;;;;;;;2.03;0.80;;;;;;;;;;5108936;27;20035;-56
2022/03/06 08:33:24;;;;;;;1.40;0.82;;;;;;;;;;5107399;27;20114;-56
2022/03/06 08:35:50;;;;;;;2.67;0.90;;;;;;;;;;5106503;27;20038;-54
2022/03/06 08:38:15;;;;;;;1.10;0.98;;;;;;;;;;5108000;27;20038;-56
2022/03/06 08:40:40;;;;;;;2.55;1.00;;;;;;;;;;5106016;27;20092;-56
2022/03/06 08:43:05;;;;;;;1.10;0.63;;;;;;;;;;5109649;27;20448;-56
2022/03/06 08:45:31;;;;;;;3.00;0.68;;;;;;;;;;5110096;27;20122;-56
2022/03/06 08:47:56;;;;;;;2.55;0.77;;;;;;;;;;5106672;27;20510;-56
2022/03/06 08:50:21;;;;;;;1.20;0.90;;;;;;;;;;5107425;27;20094;-56
2022/03/06 08:52:47;;;;;;;1.25;0.63;;;;;;;;;;5111365;27;20024;-56
2022/03/06 08:55:12;;;;;;;2.03;0.80;;;;;;;;;;5098642;27;20066;-56
2022/03/06 08:57:37;;;;;;;2.00;0.93;;;;;;;;;;5103571;27;20035;-56
2022/03/06 09:00:04;;;;;;;0.70;0.47;;;;;;;;;;5106542;27;20016;-56
2022/03/06 09:02:29;;;;;;;1.42;0.73;;;;;;;;;;5105358;27;20031;-55
2022/03/06 09:04:54;;;;;;;2.35;0.85;;;;;;;;;;5105449;27;20480;-56
2022/03/06 09:07:19;;;;;;;1.45;0.60;;;;;;;;;;5106605;27;20051;-56
2022/03/06 09:09:45;;;;;;;1.58;0.60;;;;;;;;;;5106904;27;20384;-56
2022/03/06 09:12:10;;;;;;;1.38;0.80;;;;;;;;;;5105897;27;20028;-56
2022/03/06 09:14:35;;;;;;;3.58;0.70;;;;;;;;;;5108083;27;20026;-55
2022/03/06 09:17:01;;;;;;;3.20;1.38;;;;;;;;;;5109058;27;20479;-56
2022/03/06 09:19:26;;;;;;;1.35;0.63;;;;;;;;;;5106114;27;20015;-57
2022/03/06 09:21:51;;;;;;;1.08;0.70;;;;;;;;;;5108016;27;20038;-56
2022/03/06 09:24:16;;;;;;;0.60;0.47;;;;;;;;;;5103937;27;20024;-57
2022/03/06 09:26:43;;;;;;;1.58;0.73;;;;;;;;;;5107784;27;20051;-54
2022/03/06 09:29:08;;;;;;;1.35;0.40;;;;;;;;;;5111855;28;20093;-57
2022/03/06 09:31:33;;;;;;;2.83;0.50;;;;;;;;;;5107136;28;20019;-57
2022/03/06 09:33:58;;;;;;;1.58;0.60;;;;;;;;;;5110806;27;20468;-55
2022/03/06 09:36:24;;;;;;;1.00;0.43;;;;;;;;;;5110947;27;20055;-53
2022/03/06 09:38:49;;;;;;;3.92;0.65;;;;;;;;;;5109292;27;20118;-57
2022/03/06 09:41:16;;;;;;;1.60;0.68;;;;;;;;;;5103973;28;20024;-54
2022/03/06 09:43:42;;;;;;;0.95;0.68;;;;;;;;;;5111545;28;20137;-55
2022/03/06 09:46:07;;;;;;;2.80;0.90;;;;;;;;;;5101797;28;20110;-56
2022/03/06 09:48:33;;;;;;;2.05;0.80;;;;;;;;;;5104215;27;20035;-57
2022/03/06 09:51:00;;;;;;;1.25;0.80;;;;;;;;;;5103735;28;20019;-57
2022/03/06 09:53:25;;;;;;;1.20;0.63;;;;;;;;;;5102785;27;20038;-56
2022/03/06 09:55:50;;;;;;;1.20;0.45;;;;;;;;;;5110118;28;20122;-56
2022/03/06 09:58:16;;;;;;;1.35;0.70;;;;;;;;;;5098480;28;20111;-56
2022/03/06 10:00:41;;;;;;;2.95;0.90;;;;;;;;;;5109881;28;20119;-56
2022/03/06 10:03:07;;;;;;;1.10;0.70;;;;;;;;;;5111208;28;20483;-57
2022/03/06 10:05:32;;;;;;;0.73;0.57;;;;;;;;;;5093584;28;20028;-56
2022/03/06 10:08:17;;;;;;;3.63;0.60;;;;;;;;;;5097100;27;20035;-58
2022/03/06 10:10:43;;;;;;;1.17;0.50;;;;;;;;;;5105960;28;20153;-56
2022/03/06 10:13:22;;;;;;;0.68;0.50;;;;;;;;;;5108180;28;20034;-57
2022/03/06 10:16:05;;;;;;;2.15;1.17;;;;;;;;;;5106673;28;20027;-55
2022/03/06 10:18:32;;;;;;;1.27;0.80;;;;;;;;;;5107923;28;20438;-57
2022/03/06 10:21:01;;;;;;;1.10;0.50;;;;;;;;;;5096973;28;20038;-56
2022/03/06 10:23:26;;;;;;;0.60;0.43;;;;;;;;;;5097716;28;20528;-57
2022/03/06 10:26:05;;;;;;;1.27;0.52;;;;;;;;;;5102664;28;20020;-56
2022/03/06 10:28:30;;;;;;;2.78;0.65;;;;;;;;;;5099069;28;20514;-57
2022/03/06 10:31:03;;;;;;;1.33;0.93;;;;;;;;;;5110424;28;20036;-57
2022/03/06 10:33:28;;;;;;;2.80;0.80;;;;;;;;;;5104050;28;20027;-57
2022/03/06 10:35:55;;;;;;;1.83;0.90;;;;;;;;;;5094065;28;20032;-57
2022/03/06 10:38:26;;;;;;;1.98;0.98;;;;;;;;;;5103750;28;20476;-55
2022/03/06 10:40:52;;;;;;;2.40;0.75;;;;;;;;;;5110009;28;20472;-57
2022/03/06 10:43:28;;;;;;;2.10;0.55;;;;;;;;;;5111675;28;20073;-57
2022/03/06 10:46:10;;;;;;;2.25;0.70;;;;;;;;;;5110694;28;20062;-58
2022/03/06 10:48:35;;;;;;;2.17;0.73;;;;;;;;;;5108368;28;20116;-54
2022/03/06 10:51:02;;;;;;;1.58;0.63;;;;;;;;;;5104895;28;20245;-57
2022/03/06 10:53:28;;;;;;;2.08;0.65;;;;;;;;;;5114024;28;20514;-54
2022/03/06 10:55:54;;;;;;;2.00;0.47;;;;;;;;;;5112555;28;20112;-56
2022/03/06 10:58:19;;;;;;;1.63;0.40;;;;;;;;;;5114575;28;20071;-56
2022/03/06 11:00:45;;;;;;;1.23;0.70;;;;;;;;;;5111635;28;20026;-57
2022/03/06 11:03:12;;;;;;;2.50;0.82;;;;;;;;;;5113372;27;20020;-55
2022/03/06 11:05:40;;;;;;;2.90;1.05;;;;;;;;;;5097235;27;20419;-57
2022/03/06 11:08:05;;;;;;;4.00;0.90;;;;;;;;;;5098339;27;20048;-58
2022/03/06 11:10:32;;;;;;;3.38;1.90;;;;;;;;;;5098561;27;20066;-54
2022/03/06 11:12:57;;;;;;;3.65;1.10;;;;;;;;;;5114720;28;20110;-54
2022/03/06 11:15:23;;;;;;;2.83;0.70;;;;;;;;;;5113479;27;20164;-55
2022/03/06 11:17:48;;;;;;;3.80;0.90;;;;;;;;;;5105806;27;20027;-55
2022/03/06 11:20:14;;;;;;;4.13;1.83;;;;;;;;;;5104660;27;20030;-54
2022/03/06 11:22:44;;;;;;;2.45;0.47;;;;;;;;;;5101664;28;20028;-55
2022/03/06 11:25:11;;;;;;;4.78;2.00;;;;;;;;;;5108405;28;20043;-56
2022/03/06 11:27:36;;;;;;;1.60;0.57;;;;;;;;;;5111524;28;20028;-54
2022/03/06 11:30:06;;;;;;;2.67;1.40;;;;;;;;;;5110122;27;20023;-56
2022/03/06 11:32:33;;;;;;;4.07;1.90;;;;;;;;;;5112465;28;20024;-57
2022/03/06 11:35:03;;;;;;;4.63;1.83;;;;;;;;;;5112589;28;20449;-58
2022/03/06 11:37:29;;;;;;;3.42;1.38;;;;;;;;;;5114162;28;20106;-57
2022/03/06 11:39:54;;;;;;;3.03;1.08;;;;;;;;;;5097839;27;20354;-57
2022/03/06 11:42:38;;;;;;;1.85;1.20;;;;;;;;;;5110410;28;20119;-53
2022/03/06 11:45:03;;;;;;;3.38;0.82;;;;;;;;;;5095508;28;20016;-56
2022/03/06 11:47:35;;;;;;;2.58;0.88;;;;;;;;;;5111957;28;20038;-53
2022/03/06 11:50:00;;;;;;;3.72;0.82;;;;;;;;;;5103100;28;20034;-57
2022/03/06 11:52:25;;;;;;;3.10;1.77;;;;;;;;;;5111103;27;20102;-57
2022/03/06 11:54:50;;;;;;;2.10;0.80;;;;;;;;;;5103550;27;20047;-55
2022/03/06 11:57:34;;;;;;;1.48;0.60;;;;;;;;;;5112312;27;20642;-54
2022/03/06 12:00:19;;;;;;;2.83;1.00;;;;;;;;;;5104917;27;20484;-56
2022/03/06 12:02:46;;;;;;;2.05;0.88;;;;;;;;;;5106983;28;20022;-56
2022/03/06 12:05:11;;;;;;;1.63;0.50;;;;;;;;;;5106648;27;20032;-56
2022/03/06 12:07:38;;;;;;;2.80;0.85;;;;;;;;;;5107351;27;20028;-58
2022/03/06 12:10:06;;;;;;;1.60;0.70;;;;;;;;;;5112549;27;20024;-55
2022/03/06 12:12:31;;;;;;;1.00;0.50;;;;;;;;;;5107091;27;20288;-56
2022/03/06 12:14:57;;;;;;;1.98;0.50;;;;;;;;;;5108145;27;21736;-56
2022/03/06 12:17:24;;;;;;;1.60;0.68;;;;;;;;;;5113280;27;20038;-56
2022/03/06 12:19:49;;;;;;;2.30;0.55;;;;;;;;;;5107102;27;20007;-55
2022/03/06 12:22:15;;;;;;;2.83;0.50;;;;;;;;;;5109903;27;20470;-56
2022/03/06 12:24:41;;;;;;;0.90;0.68;;;;;;;;;;5099464;27;20316;-57
2022/03/06 12:27:25;;;;;;;2.28;0.60;;;;;;;;;;5106583;27;20300;-56
2022/03/06 12:30:00;;;;;;;2.67;0.40;;;;;;;;;;5112530;27;20051;-57
2022/03/06 12:32:26;;;;;;;3.28;0.40;;;;;;;;;;5109494;27;20094;-56
2022/03/06 12:34:56;;;;;;;1.35;0.30;;;;;;;;;;5102535;27;20110;-56
2022/03/06 12:37:22;;;;;;;0.93;0.35;;;;;;;;;;5105659;27;20384;-58
2022/03/06 12:39:48;;;;;;;1.52;0.30;;;;;;;;;;5111183;27;20022;-56
2022/03/06 12:42:13;;;;;;;1.25;0.43;;;;;;;;;;5101040;28;20139;-54
2022/03/06 12:44:44;;;;;;;3.10;0.60;;;;;;;;;;5104613;28;20063;-56
2022/03/06 12:47:10;;;;;;;1.95;0.65;;;;;;;;;;5092043;28;20015;-57
2022/03/06 12:49:35;;;;;;;1.83;0.68;;;;;;;;;;5097283;28;20028;-57
2022/03/06 12:52:00;;;;;;;2.00;0.68;;;;;;;;;;5103188;28;20032;-57
2022/03/06 12:54:26;;;;;;;3.78;0.77;;;;;;;;;;5102032;28;20069;-56
2022/03/06 12:56:52;;;;;;;2.08;0.85;;;;;;;;;;5110374;28;20050;-56
2022/03/06 12:59:17;;;;;;;1.58;0.63;;;;;;;;;;5105206;27;20024;-56
2022/03/06 13:01:47;;;;;;;2.13;0.50;;;;;;;;;;5106982;28;20491;-55
2022/03/06 13:04:13;;;;;;;3.03;0.60;;;;;;;;;;5112779;27;20011;-57
2022/03/06 13:06:39;;;;;;;2.40;0.93;;;;;;;;;;5117061;27;20024;-57
2022/03/06 13:09:05;;;;;;;1.60;0.75;;;;;;;;;;5110815;28;20035;-58
2022/03/06 13:11:33;;;;;;;4.43;0.95;;;;;;;;;;5107648;27;20367;-56
2022/03/06 13:14:03;;;;;;;3.20;1.02;;;;;;;;;;5103472;28;20099;-56
2022/03/06 13:16:28;;;;;;;1.10;0.45;;;;;;;;;;5106993;27;20046;-55
2022/03/06 13:18:57;;;;;;;1.00;0.65;;;;;;;;;;5107285;27;20020;-58
2022/03/06 13:21:24;;;;;;;1.90;0.80;;;;;;;;;;5101252;27;20120;-57
2022/03/06 13:24:03;;;;;;;2.10;0.60;;;;;;;;;;5097434;27;20076;-56
2022/03/06 13:26:28;;;;;;;2.92;0.68;;;;;;;;;;5103431;27;20024;-56
2022/03/06 13:28:54;;;;;;;1.48;0.60;;;;;;;;;;5105231;28;20039;-57
2022/03/06 13:31:19;;;;;;;0.93;0.55;;;;;;;;;;5106208;28;20059;-58
2022/03/06 13:33:44;;;;;;;1.40;0.55;;;;;;;;;;5110553;27;20019;-57
2022/03/06 13:36:16;;;;;;;1.70;0.43;;;;;;;;;;5093448;28;20376;-57
2022/03/06 13:38:41;;;;;;;5.20;0.80;;;;;;;;;;5093804;28;20084;-57
2022/03/06 13:41:08;;;;;;;2.33;0.65;;;;;;;;;;5106715;28;20024;-57
2022/03/06 13:43:35;;;;;;;1.23;0.57;;;;;;;;;;5111764;28;20033;-57
2022/03/06 13:46:00;;;;;;;1.42;0.50;;;;;;;;;;5097612;28;20069;-58
2022/03/06 13:48:29;;;;;;;2.58;0.60;;;;;;;;;;5099975;28;20028;-55
2022/03/06 13:50:56;;;;;;;1.55;0.40;;;;;;;;;;5117507;27;20035;-57
2022/03/06 13:53:21;;;;;;;2.33;0.52;;;;;;;;;;5117996;27;20016;-58
2022/03/06 13:55:55;;;;;;;1.27;0.57;;;;;;;;;;5102635;28;20098;-58
2022/03/06 13:58:20;;;;;;;3.15;0.63;;;;;;;;;;5108143;28;20388;-57
2022/03/06 14:00:48;;;;;;;2.25;1.17;;;;;;;;;;5106745;28;20028;-57
2022/03/06 14:03:17;;;;;;;2.65;1.15;;;;;;;;;;5106858;28;20024;-57
2022/03/06 14:05:47;;;;;;;5.20;2.03;;;;;;;;;;5104873;28;20027;-57
2022/03/06 14:08:13;;;;;;;2.42;1.20;;;;;;;;;;5105580;28;20024;-56
2022/03/06 14:10:40;;;;;;;1.60;0.93;;;;;;;;;;5104038;27;20044;-58
2022/03/06 14:13:18;;;;;;;3.00;0.90;;;;;;;;;;5111959;28;20117;-57
2022/03/06 14:15:43;;;;;;;2.03;0.60;;;;;;;;;;5106246;28;20108;-57
2022/03/06 14:18:08;;;;;;;2.10;0.70;;;;;;;;;;5107572;28;20509;-56
2022/03/06 14:20:46;;;;;;;2.97;0.60;;;;;;;;;;5109437;28;20020;-57
2022/03/06 14:23:11;;;;;;;2.78;0.70;;;;;;;;;;5096681;28;20031;-56
2022/03/06 14:25:36;;;;;;;0.55;0.30;;;;;;;;;;5103690;28;20407;-57
2022/03/06 14:28:02;;;;;;;0.52;0.50;;;;;;;;;;5103753;27;20625;-56
2022/03/06 14:30:27;;;;;;;1.23;0.50;;;;;;;;;;5113698;28;20059;-55
2022/03/06 14:32:52;;;;;;;0.55;0.40;;;;;;;;;;5114226;28;20046;-58
2022/03/06 14:35:18;;;;;;;1.80;0.50;;;;;;;;;;5112381;28;20041;-57
2022/03/06 14:37:43;;;;;;;0.75;0.63;;;;;;;;;;5104267;28;20433;-58